Impacts TAF Board INFO
FOR SITUATIONAL AWARENESS. NOT TO BE USED FOR FLIGHT PLANNING PURPOSES.
IDs:

KLAS - Las Vegas/McCarran I, NV, US

Issued at 2330 UTC 22 Jun 2018
Updated at 0022 UTC 23 Jun 2018
Potential Impact None Slight Moderate High
Time<<23/13Z 23/14Z 23/15Z 23/16Z 23/17Z 23/18Z 23/19Z 23/20Z 23/21Z 23/22Z 23/23Z 24/00Z 24/01Z>>
Type PRVL PRVL PRVL PRVL PRVL PRVL PRVL PRVL PRVL PRVL PRVL PRVL PRVL
VIS >6 >6 >6 >6 >6 >6 >6 >6 >6 >6 >6 >6 >6
CIG -- -- -- -- -- -- -- -- -- -- -- -- --
Cover SKC SKC SKC SKC SKC SKC SKC SKC SKC SKC SKC SKC SKC
FltCat VFR VFR VFR VFR VFR VFR VFR VFR VFR VFR VFR VFR VFR
WX -- -- -- -- -- -- -- -- -- -- -- -- --
WDir 210 210 210 50 50 50 50 50 50 200 200 200 200
WSpd 8 8 8 6 6 6 6 6 6 15 15 15 15
WGst -- -- -- -- -- -- -- -- -- 25 25 25 25

Raw TAF
KLAS 222330Z 2300/2406 12006KT P6SM SKC
  FM230300 21008KT P6SM SKC
  FM231600 05006KT P6SM SKC
  FM232200 20015G25KT P6SM SKC


METAR Board
Radar Display
Forecast Discussion

FOR SITUATIONAL AWARENESS. NOT TO BE USED FOR FLIGHT PLANNING PURPOSES.